createdAt,value
2023-03-23T15:58:53.669Z,96949.84
2023-03-23T16:01:27.612Z,96959.13
2023-03-23T16:04:14.253Z,96942.94
2023-03-23T16:06:43.166Z,96953.25
2023-03-23T16:09:20.704Z,96952.34
2023-03-23T16:11:48.294Z,96956.91
2023-03-23T16:14:15.954Z,96959.13
2023-03-23T16:16:51.176Z,96959.00
2023-03-23T16:19:24.115Z,96956.28
2023-03-23T16:21:51.622Z,96963.56
2023-03-23T16:24:19.398Z,96962.72
2023-03-23T16:26:47.018Z,96970.13
2023-03-23T16:29:28.957Z,96974.22
2023-03-23T16:32:04.788Z,96973.19
2023-03-23T16:34:33.725Z,96978.00
2023-03-23T16:37:02.081Z,96973.88
2023-03-23T16:39:29.857Z,96974.69
2023-03-23T16:41:57.479Z,96970.94
2023-03-23T16:44:25.263Z,96977.38
2023-03-23T16:46:52.801Z,96969.53
2023-03-23T16:49:20.308Z,96970.81
2023-03-23T16:51:48.214Z,96970.91
2023-03-23T16:54:15.788Z,96967.03
2023-03-23T16:56:46.661Z,96963.53
2023-03-23T16:59:14.344Z,96960.59
2023-03-23T17:01:43.064Z,96964.13
2023-03-23T17:04:11.247Z,96952.97
2023-03-23T17:06:38.882Z,96951.78
2023-03-23T17:09:07.776Z,96949.44
2023-03-23T17:11:35.700Z,96943.22
2023-03-23T17:14:03.641Z,96945.69
2023-03-23T17:16:31.219Z,96944.50
2023-03-23T17:18:58.836Z,96943.13
2023-03-23T17:21:26.960Z,96945.56
2023-03-23T17:23:54.557Z,96949.91
2023-03-23T17:26:22.061Z,96944.50
2023-03-23T17:28:49.694Z,96938.53
2023-03-23T17:31:17.308Z,96933.72
2023-03-23T17:33:44.989Z,96939.94
2023-03-23T17:36:12.626Z,96938.91
2023-03-23T17:38:40.208Z,96927.53
2023-03-23T17:41:08.171Z,96932.06
2023-03-23T17:43:36.315Z,96929.63
2023-03-23T17:46:04.427Z,96929.84
2023-03-23T17:48:32.172Z,96924.91
2023-03-23T17:51:02.278Z,96928.19
2023-03-23T17:53:35.527Z,96929.84
2023-03-23T17:56:05.135Z,96931.25
2023-03-23T17:58:33.306Z,96927.53
2023-03-23T18:01:01.549Z,96928.19
2023-03-23T18:03:29.566Z,96933.59
2023-03-23T18:06:03.573Z,96937.41
2023-03-23T18:08:31.821Z,96932.88
2023-03-23T18:10:59.310Z,96937.63
2023-03-23T18:13:29.758Z,96942.44
2023-03-23T18:15:58.253Z,96932.72
2023-03-23T18:18:26.481Z,96927.31
2023-03-23T18:21:03.679Z,96931.31
2023-03-23T18:23:39.021Z,96925.91
2023-03-23T18:26:13.915Z,96928.84
2023-03-23T18:28:41.510Z,96923.22
2023-03-23T18:31:13.434Z,96924.03
2023-03-23T18:33:42.458Z,96923.22
2023-03-23T18:36:10.703Z,96916.75
2023-03-23T18:38:39.188Z,96920.75
2023-03-23T18:41:09.199Z,96925.91
2023-03-23T18:43:37.303Z,96924.25
2023-03-23T18:46:05.686Z,96934.19
2023-03-23T18:48:33.974Z,96933.94
2023-03-23T18:51:02.363Z,96940.78
2023-03-23T18:53:30.507Z,96935.59
2023-03-23T18:56:11.522Z,96941.22
2023-03-23T18:58:39.781Z,96938.06
2023-03-23T19:01:15.895Z,96939.34
2023-03-23T19:03:43.845Z,96944.28
2023-03-23T19:06:25.196Z,96946.97
2023-03-23T19:08:54.650Z,96949.78
2023-03-23T19:11:27.768Z,96944.50
2023-03-23T19:14:02.332Z,96945.09
2023-03-23T19:16:37.811Z,96942.19
2023-03-23T19:19:08.158Z,96948.03
2023-03-23T19:21:37.829Z,96947.56
2023-03-23T19:24:07.224Z,96945.56
2023-03-23T19:26:39.341Z,96949.09
2023-03-23T19:29:26.107Z,96951.56
2023-03-23T19:31:56.514Z,96960.91
2023-03-23T19:34:25.608Z,96954.09
2023-03-23T19:36:59.654Z,96959.81
2023-03-23T19:39:34.046Z,96950.44
2023-03-23T19:42:02.222Z,96950.56
2023-03-23T19:44:29.752Z,96950.91
2023-03-23T19:46:57.758Z,96950.34
2023-03-23T19:49:25.910Z,96944.19
2023-03-23T19:52:06.484Z,96947.25
2023-03-23T19:54:36.742Z,96949.47
2023-03-23T19:57:05.321Z,96945.22
2023-03-23T19:59:32.899Z,96941.94
2023-03-23T20:02:00.615Z,96943.38
2023-03-23T20:04:28.162Z,96944.03
2023-03-23T20:06:57.084Z,96937.63
2023-03-23T20:09:25.283Z,96939.03
2023-03-23T20:11:53.762Z,96935.75
2023-03-23T20:14:21.299Z,96938.75
2023-03-23T20:16:49.197Z,96944.38
2023-03-23T20:19:16.682Z,96939.78
2023-03-23T20:21:45.191Z,96935.47
2023-03-23T20:24:13.018Z,96928.91
2023-03-23T20:26:43.769Z,96927.47
2023-03-23T20:29:11.310Z,96930.63
2023-03-23T20:31:41.168Z,96929.44
2023-03-23T20:34:12.902Z,96925.09
2023-03-23T20:36:45.828Z,96916.56
2023-03-23T20:39:23.094Z,96923.56
2023-03-23T20:41:54.556Z,96920.75
2023-03-23T20:44:25.331Z,96913.56
2023-03-23T20:46:54.246Z,96918.72
2023-03-23T20:49:22.433Z,96909.03
2023-03-23T20:51:51.779Z,96914.41
2023-03-23T20:54:20.576Z,96910.88
2023-03-23T20:56:48.566Z,96922.22
2023-03-23T20:59:16.651Z,96913.13
2023-03-23T21:01:44.718Z,96910.66
2023-03-23T21:04:17.863Z,96918.13
2023-03-23T21:06:48.931Z,96923.53
2023-03-23T21:09:17.816Z,96922.91
2023-03-23T21:11:46.477Z,96919.03
2023-03-23T21:14:14.470Z,96920.06
2023-03-23T21:16:42.889Z,96921.34
2023-03-23T21:19:11.793Z,96919.72
2023-03-23T21:21:56.780Z,96911.88
2023-03-23T21:24:31.306Z,96897.81
2023-03-23T21:27:02.691Z,96889.75
2023-03-23T21:29:30.772Z,96891.81
2023-03-23T21:34:30.445Z,96883.34
2023-03-23T21:36:58.103Z,96874.81
2023-03-23T21:39:26.268Z,96875.88
2023-03-23T21:41:54.017Z,96878.34
2023-03-23T21:44:21.732Z,96869.19
2023-03-23T21:46:52.073Z,96868.19
2023-03-23T21:49:20.021Z,96873.97
2023-03-23T21:51:49.228Z,96869.38
2023-03-23T21:54:17.078Z,96874.56
2023-03-23T21:56:44.756Z,96865.19
2023-03-23T21:59:12.355Z,96868.47
2023-03-23T22:01:42.809Z,96852.53
2023-03-23T22:04:10.354Z,96843.88
2023-03-23T22:06:37.956Z,96834.97
2023-03-23T22:09:05.783Z,96838.47
2023-03-23T22:11:33.696Z,96832.28
2023-03-23T22:14:01.606Z,96825.03
2023-03-23T22:16:29.381Z,96821.38
2023-03-23T22:19:00.211Z,96815.47
2023-03-23T22:21:29.188Z,96807.38
2023-03-23T22:23:59.803Z,96798.84
2023-03-23T22:26:29.481Z,96807.75
2023-03-23T22:28:58.632Z,96794.88
2023-03-23T22:31:30.346Z,96788.91
2023-03-23T22:33:58.484Z,96784.56
2023-03-23T22:36:29.323Z,96781.06
2023-03-23T22:38:57.059Z,96777.56
2023-03-23T22:41:31.212Z,96768.41
2023-03-23T22:43:59.266Z,96780.00
2023-03-23T22:46:26.967Z,96775.31
2023-03-23T22:48:54.757Z,96783.81
2023-03-23T22:51:23.050Z,96779.50
2023-03-23T22:53:50.922Z,96776.22
2023-03-23T22:56:19.237Z,96778.31
2023-03-23T22:58:46.975Z,96787.91
2023-03-23T23:01:20.513Z,96773.47
2023-03-23T23:03:49.065Z,96773.69
2023-03-23T23:06:18.020Z,96765.25
2023-03-23T23:08:47.114Z,96769.66
2023-03-23T23:11:17.371Z,96764.75
2023-03-23T23:13:45.553Z,96757.34
2023-03-23T23:16:17.098Z,96758.84
2023-03-23T23:18:49.885Z,96757.66
2023-03-23T23:21:22.313Z,96765.25
2023-03-23T23:23:51.558Z,96766.75
2023-03-23T23:26:20.160Z,96767.66
2023-03-23T23:28:48.581Z,96773.63
2023-03-23T23:31:26.655Z,96777.53
2023-03-23T23:33:57.721Z,96779.41
2023-03-23T23:36:28.173Z,96784.78
2023-03-23T23:39:01.590Z,96771.69
2023-03-23T23:41:30.609Z,96774.28
2023-03-23T23:43:58.746Z,96780.16
2023-03-23T23:46:27.739Z,96776.66
2023-03-23T23:48:55.835Z,96767.34
2023-03-23T23:51:27.126Z,96760.78
2023-03-23T23:53:58.929Z,96735.91
2023-03-23T23:56:27.342Z,96726.34
2023-03-23T23:58:55.166Z,96732.91
